Time;durP1;ratioP1;P1;durP2;ratioP2;P2;SDS_P1;SDS_P2;PMS_P1;PMS_P2;Temp;Humidity;BMP_temperature;BMP_pressure;BME280_temperature;BME280_humidity;BME280_pressure;Samples;Min_cycle;Max_cycle;Signal;HPM_P1;HPM_P2
2021/05/01 00:01:50;;;;;;;6.30;4.83;;;;;;;5.32;100.00;100801.09;4977153;28;20740;-83
2021/05/01 00:04:16;;;;;;;6.57;4.60;;;;;;;5.34;100.00;100812.44;4976563;28;20146;-84
2021/05/01 00:06:43;;;;;;;7.23;5.40;;;;;;;5.35;100.00;100801.09;4959070;28;20046;-84
2021/05/01 00:09:09;;;;;;;7.90;4.93;;;;;;;5.44;100.00;100809.84;4977082;28;20120;-83
2021/05/01 00:11:35;;;;;;;7.73;5.30;;;;;;;5.46;99.97;100808.09;4977935;28;20046;-84
2021/05/01 00:14:02;;;;;;;6.07;4.77;;;;;;;5.45;100.00;100802.00;4956257;28;20073;-84
2021/05/01 00:16:28;;;;;;;8.20;5.40;;;;;;;5.45;100.00;100794.13;4956530;28;20097;-83
2021/05/01 00:18:55;;;;;;;7.83;5.30;;;;;;;5.43;100.00;100803.75;4976630;28;20101;-83
2021/05/01 00:21:21;;;;;;;11.63;6.47;;;;;;;5.41;100.00;100799.38;4960905;28;20104;-84
2021/05/01 00:23:47;;;;;;;7.47;5.17;;;;;;;5.49;100.00;100809.00;4960859;28;20053;-84
2021/05/01 00:26:14;;;;;;;8.90;5.07;;;;;;;5.44;100.00;100805.47;4993811;28;20100;-82
2021/05/01 00:28:40;;;;;;;8.27;4.90;;;;;;;5.45;100.00;100807.22;4976525;28;20109;-83
2021/05/01 00:31:07;;;;;;;10.30;5.73;;;;;;;5.48;100.00;100814.25;4977252;28;20046;-83
2021/05/01 00:33:34;;;;;;;8.60;6.03;;;;;;;5.52;100.00;100810.75;4976891;28;20111;-83
2021/05/01 00:36:00;;;;;;;8.93;6.67;;;;;;;5.53;100.00;100813.38;4993066;28;20389;-83
2021/05/01 00:38:26;;;;;;;9.63;5.80;;;;;;;5.66;100.00;100816.91;4965105;28;20098;-83
2021/05/01 00:40:52;;;;;;;10.70;6.33;;;;;;;5.60;100.00;100812.50;4966603;28;20101;-82
2021/05/01 00:43:19;;;;;;;8.43;5.67;;;;;;;5.72;100.00;100811.69;4974291;28;20407;-83
2021/05/01 00:45:45;;;;;;;11.43;6.70;;;;;;;5.65;99.91;100817.78;4985739;28;20457;-83
2021/05/01 00:48:11;;;;;;;9.37;6.27;;;;;;;5.60;100.00;100820.38;4975676;28;20507;-83
2021/05/01 00:50:37;;;;;;;6.03;4.67;;;;;;;5.57;100.00;100820.38;4974517;28;20046;-83
2021/05/01 00:53:04;;;;;;;8.27;5.67;;;;;;;5.60;100.00;100817.75;5007142;28;20050;-83
2021/05/01 00:55:36;;;;;;;10.73;6.07;;;;;;;5.74;100.00;100816.94;4974236;28;20046;-84
2021/05/01 00:58:03;;;;;;;9.57;5.73;;;;;;;5.72;100.00;100811.69;4986687;28;20050;-82
2021/05/01 01:02:59;;;;;;;7.60;5.10;;;;;;;5.71;100.00;100806.41;4974661;28;20440;-84
2021/05/01 01:05:25;;;;;;;9.67;5.63;;;;;;;5.73;100.00;100807.31;4991499;28;20561;-84
2021/05/01 01:07:51;;;;;;;9.20;6.60;;;;;;;5.74;100.00;100809.94;4973630;28;20043;-82
2021/05/01 01:10:18;;;;;;;8.47;5.80;;;;;;;5.70;100.00;100802.03;4987204;28;20046;-83
2021/05/01 01:12:44;;;;;;;10.00;6.67;;;;;;;5.68;100.00;100801.19;4947010;28;20081;-83
2021/05/01 01:15:22;;;;;;;8.80;5.23;;;;;;;5.70;100.00;100804.66;4967100;28;20049;-83
2021/05/01 01:17:48;;;;;;;9.37;6.60;;;;;;;5.71;100.00;100802.03;4952503;28;20460;-82
2021/05/01 01:20:14;;;;;;;8.83;6.00;;;;;;;5.72;100.00;100797.69;4973213;28;20046;-82
2021/05/01 01:22:40;;;;;;;10.93;7.80;;;;;;;5.68;100.00;100793.31;4974325;28;20050;-82
2021/05/01 01:25:07;;;;;;;10.50;7.47;;;;;;;5.64;100.00;100792.44;4957915;28;20500;-82
2021/05/01 01:27:33;;;;;;;10.07;6.77;;;;;;;5.58;100.00;100798.53;4972016;28;20051;-82
2021/05/01 01:29:59;;;;;;;13.47;8.73;;;;;;;5.75;100.00;100793.31;4967932;28;20101;-83
2021/05/01 01:32:26;;;;;;;14.50;9.27;;;;;;;5.61;100.00;100795.03;4973937;28;20058;-83
2021/05/01 01:34:52;;;;;;;14.00;8.57;;;;;;;5.69;100.00;100801.19;4986313;28;20042;-83
2021/05/01 01:37:18;;;;;;;16.47;7.73;;;;;;;5.45;100.00;100799.38;4942451;28;20039;-84
2021/05/01 01:39:44;;;;;;;12.67;8.10;;;;;;;5.60;100.00;100798.53;4954031;28;20065;-83
2021/05/01 01:42:10;;;;;;;13.43;8.07;;;;;;;5.79;100.00;100794.19;4955168;28;20435;-83
2021/05/01 01:44:36;;;;;;;15.47;8.77;;;;;;;5.83;100.00;100794.22;4990262;28;20050;-83
2021/05/01 01:47:03;;;;;;;13.50;8.40;;;;;;;5.78;100.00;100795.06;4957547;28;20038;-84
2021/05/01 01:49:33;;;;;;;17.10;9.87;;;;;;;5.78;100.00;100795.06;4989697;28;20088;-83
2021/05/01 01:51:59;;;;;;;13.70;9.00;;;;;;;5.59;100.00;100783.69;4950550;28;20049;-83
2021/05/01 01:54:25;;;;;;;13.10;8.40;;;;;;;5.63;100.00;100785.44;4973991;28;20043;-82
2021/05/01 01:56:52;;;;;;;12.27;8.10;;;;;;;5.60;100.00;100781.06;4960234;28;20097;-82
2021/05/01 01:59:18;;;;;;;13.53;8.47;;;;;;;5.59;100.00;100788.94;4965681;28;20057;-82
2021/05/01 02:01:44;;;;;;;13.87;9.50;;;;;;;5.62;100.00;100795.03;4966008;28;20073;-82
2021/05/01 02:04:16;;;;;;;14.77;9.27;;;;;;;5.60;100.00;100793.28;5054202;23;20420;31
2021/05/01 02:06:43;;;;;;;15.47;10.80;;;;;;;5.66;100.00;100798.56;4970839;28;20531;-84
2021/05/01 02:09:09;;;;;;;15.73;9.13;;;;;;;5.61;100.00;100792.41;4971702;28;20046;-83
2021/05/01 02:11:35;;;;;;;12.03;8.17;;;;;;;5.63;100.00;100803.78;4967301;28;20121;-84
2021/05/01 02:14:03;;;;;;;14.27;9.27;;;;;;;5.60;100.00;100807.28;4973475;28;20049;-85
2021/05/01 02:16:30;;;;;;;13.97;8.97;;;;;;;5.61;100.00;100809.03;4956000;28;20046;-84
2021/05/01 02:19:01;;;;;;;12.97;9.00;;;;;;;5.63;100.00;100807.31;4955202;28;20078;-84
2021/05/01 02:21:28;;;;;;;16.53;10.23;;;;;;;5.64;100.00;100801.19;4952890;28;20055;-83
2021/05/01 02:23:55;;;;;;;17.77;11.33;;;;;;;5.63;100.00;100801.16;4948765;28;20666;-84
2021/05/01 02:26:21;;;;;;;14.57;10.23;;;;;;;5.64;100.00;100803.81;4967569;28;20104;-84
2021/05/01 02:28:47;;;;;;;15.90;10.63;;;;;;;5.67;100.00;100802.06;4954813;28;20244;-83
2021/05/01 02:31:13;;;;;;;16.53;10.60;;;;;;;5.64;100.00;100808.19;4955811;28;20062;-84
2021/05/01 02:33:40;;;;;;;19.97;11.20;;;;;;;5.61;100.00;100802.91;4936619;28;20042;-82
2021/05/01 02:36:06;;;;;;;18.83;10.93;;;;;;;5.70;100.00;100796.81;4970822;28;20059;-83
2021/05/01 02:38:32;;;;;;;16.37;10.13;;;;;;;5.61;100.00;100798.53;4957252;28;20060;-83
2021/05/01 02:40:58;;;;;;;17.07;11.17;;;;;;;5.62;100.00;100792.41;4969441;28;20046;-83
2021/05/01 02:43:25;;;;;;;20.53;11.50;;;;;;;5.61;100.00;100787.19;4951337;28;20050;-84
2021/05/01 02:45:51;;;;;;;19.40;12.50;;;;;;;5.58;100.00;100790.69;4956642;28;20050;-83
2021/05/01 02:48:17;;;;;;;19.60;11.97;;;;;;;5.53;100.00;100781.06;4953388;28;20097;-84
2021/05/01 02:50:43;;;;;;;25.40;14.90;;;;;;;5.46;100.00;100780.16;4970039;28;20046;-83
2021/05/01 02:53:11;;;;;;;24.10;15.33;;;;;;;5.40;100.00;100777.53;4968657;28;20055;-84
2021/05/01 02:55:37;;;;;;;25.47;16.60;;;;;;;5.53;100.00;100776.69;4972238;28;20122;-83
2021/05/01 02:58:03;;;;;;;24.00;14.03;;;;;;;5.42;100.00;100774.91;4956152;28;20042;-83
2021/05/01 03:00:30;;;;;;;22.43;13.57;;;;;;;5.41;100.00;100779.28;4972264;28;20139;-84
2021/05/01 03:02:56;;;;;;;29.63;16.30;;;;;;;5.53;100.00;100779.31;4958073;28;20046;-84
2021/05/01 03:05:23;;;;;;;28.33;17.20;;;;;;;5.59;100.00;100779.31;4932379;28;20126;-84
2021/05/01 03:07:50;;;;;;;31.57;18.20;;;;;;;5.56;100.00;100776.72;4937237;28;20042;-86
2021/05/01 03:10:19;;;;;;;41.60;18.87;;;;;;;5.65;100.00;100775.84;4944259;28;20042;-84
2021/05/01 03:12:45;;;;;;;34.13;18.83;;;;;;;5.55;100.00;100774.97;4973498;28;20573;-83
2021/05/01 03:15:12;;;;;;;36.27;19.10;;;;;;;5.60;100.00;100770.59;4970462;28;20054;-84
2021/05/01 03:17:38;;;;;;;35.27;18.93;;;;;;;5.56;100.00;100758.38;4971489;28;20041;-83
2021/05/01 03:20:06;;;;;;;31.43;18.90;;;;;;;5.56;100.00;100760.97;4954247;28;20035;-85
2021/05/01 03:22:33;;;;;;;33.37;18.87;;;;;;;5.57;100.00;100760.09;4971537;28;20051;-85
2021/05/01 03:24:59;;;;;;;36.33;17.83;;;;;;;5.56;100.00;100757.50;4960766;28;20047;-85
2021/05/01 03:27:26;;;;;;;33.73;17.77;;;;;;;5.40;100.00;100758.34;4957674;28;20620;-86
2021/05/01 03:29:52;;;;;;;37.10;20.30;;;;;;;5.42;100.00;100761.81;4972795;28;20038;-86
2021/05/01 03:32:18;;;;;;;35.97;17.57;;;;;;;5.35;100.00;100761.81;4972479;28;20043;-87
2021/05/01 03:34:44;;;;;;;34.27;18.17;;;;;;;5.44;100.00;100763.56;4952350;28;20499;-86
2021/05/01 03:37:11;;;;;;;36.63;18.80;;;;;;;5.40;100.00;100756.59;4951736;28;20563;-88
2021/05/01 03:39:37;;;;;;;35.10;17.83;;;;;;;5.34;100.00;100754.81;4979568;28;20137;-86
2021/05/01 03:42:04;;;;;;;35.97;19.20;;;;;;;5.43;100.00;100760.94;4948043;28;20145;-86
2021/05/01 03:44:30;;;;;;;29.47;17.93;;;;;;;5.34;100.00;100757.44;4958019;28;20065;-86
2021/05/01 03:46:57;;;;;;;33.13;18.47;;;;;;;5.43;100.00;100758.31;4981386;28;20729;-86
2021/05/01 03:49:23;;;;;;;32.47;18.70;;;;;;;5.42;100.00;100759.19;4969076;28;20492;-86
2021/05/01 03:51:49;;;;;;;35.97;20.10;;;;;;;5.47;100.00;100760.09;4958166;28;20066;-86
2021/05/01 03:54:16;;;;;;;34.83;19.50;;;;;;;5.40;100.00;100755.72;4974134;28;20050;-86
2021/05/01 03:56:42;;;;;;;35.43;21.00;;;;;;;5.38;100.00;100758.31;4974383;28;20042;-86
2021/05/01 03:59:08;;;;;;;35.23;18.97;;;;;;;5.44;100.00;100754.84;4974517;28;20043;-86
2021/05/01 04:01:35;;;;;;;36.23;20.53;;;;;;;5.43;100.00;100747.84;4958496;28;20046;-85
2021/05/01 04:04:02;;;;;;;38.13;20.60;;;;;;;5.40;100.00;100753.09;4974706;28;20074;-86
2021/05/01 04:06:29;;;;;;;36.57;21.27;;;;;;;5.42;100.00;100751.34;4958763;28;20141;-86
2021/05/01 04:08:56;;;;;;;38.77;21.13;;;;;;;5.34;100.00;100752.19;4960464;28;20180;-86
2021/05/01 04:11:22;;;;;;;36.67;19.20;;;;;;;5.27;100.00;100750.44;4962502;28;20118;-86
2021/05/01 04:13:48;;;;;;;39.20;21.43;;;;;;;5.44;100.00;100757.44;5062610;23;20042;-87
2021/05/01 04:16:18;;;;;;;33.83;20.07;;;;;;;5.34;100.00;100759.19;4979666;28;20145;-86
2021/05/01 04:18:48;;;;;;;42.17;20.47;;;;;;;5.46;100.00;100756.56;4958905;28;20433;-87
2021/05/01 04:21:15;;;;;;;41.93;20.53;;;;;;;5.24;100.00;100757.41;4960765;28;20057;-87
2021/05/01 04:23:41;;;;;;;38.53;20.83;;;;;;;5.36;100.00;100757.44;4953705;28;20043;-86
2021/05/01 04:26:08;;;;;;;37.27;19.77;;;;;;;5.28;100.00;100764.41;4976752;28;20046;-87
2021/05/01 04:28:34;;;;;;;42.10;21.83;;;;;;;5.33;100.00;100767.91;4976574;28;20034;-87
2021/05/01 04:31:01;;;;;;;41.00;22.57;;;;;;;5.51;100.00;100761.84;4960173;28;20050;-86
2021/05/01 04:33:28;;;;;;;40.93;20.97;;;;;;;5.46;100.00;100758.31;4975888;28;20053;-87
2021/05/01 04:35:55;;;;;;;36.80;18.93;;;;;;;5.41;100.00;100762.69;4975359;28;20499;-86
2021/05/01 04:38:22;;;;;;;35.60;18.80;;;;;;;5.39;100.00;100762.69;4951209;28;20049;-87
2021/05/01 04:40:48;;;;;;;34.20;19.70;;;;;;;5.29;100.00;100764.41;4975791;28;20042;-87
2021/05/01 04:43:16;;;;;;;33.53;19.30;;;;;;;5.27;100.00;100760.91;4953539;28;20062;-86
2021/05/01 04:45:43;;;;;;;32.67;18.33;;;;;;;5.20;100.00;100767.00;4957950;28;20652;-86
2021/05/01 04:48:09;;;;;;;39.80;21.07;;;;;;;5.32;100.00;100769.66;4967742;28;20034;-86
2021/05/01 04:50:35;;;;;;;37.30;21.87;;;;;;;5.36;100.00;100768.78;4961622;28;20050;-86
2021/05/01 04:53:02;;;;;;;40.83;21.73;;;;;;;5.44;100.00;100767.94;4955373;28;20503;-86
2021/05/01 04:55:28;;;;;;;34.97;19.83;;;;;;;5.38;100.00;100768.78;4958863;28;20057;-86
2021/05/01 04:57:54;;;;;;;38.60;22.27;;;;;;;5.44;100.00;100768.81;4975392;28;20054;-86
2021/05/01 05:00:22;;;;;;;32.30;19.43;;;;;;;5.44;100.00;100766.19;4959196;28;20058;-87
2021/05/01 05:02:49;;;;;;;33.57;21.37;;;;;;;5.46;100.00;100771.41;4958534;28;20042;-86
2021/05/01 05:05:17;;;;;;;33.93;20.87;;;;;;;5.52;100.00;100766.19;4967967;28;20034;-86
2021/05/01 05:07:43;;;;;;;36.63;19.83;;;;;;;5.42;100.00;100770.56;4959353;28;20046;-85
2021/05/01 05:10:11;;;;;;;37.10;20.53;;;;;;;5.45;100.00;100773.16;4958102;28;20058;-87
2021/05/01 05:12:37;;;;;;;32.07;19.23;;;;;;;5.47;100.00;100773.19;4960373;28;20046;-86
2021/05/01 05:15:05;;;;;;;37.63;20.93;;;;;;;5.46;100.00;100780.16;4959163;28;20112;-86
2021/05/01 05:17:31;;;;;;;33.67;20.17;;;;;;;5.44;100.00;100779.28;4974815;28;20066;-87
2021/05/01 05:19:57;;;;;;;29.63;19.27;;;;;;;5.34;100.00;100772.28;4958316;28;20410;-87
2021/05/01 05:22:23;;;;;;;37.47;21.77;;;;;;;5.36;100.00;100775.78;4942443;28;20034;-87
2021/05/01 05:24:50;;;;;;;34.53;20.07;;;;;;;5.39;100.00;100775.81;4958401;28;20050;-86
2021/05/01 05:27:16;;;;;;;33.60;20.73;;;;;;;5.53;100.00;100783.66;4973183;28;20038;-88
2021/05/01 05:29:50;;;;;;;30.97;19.80;;;;;;;5.53;100.00;100779.31;4958539;28;20157;-87
2021/05/01 05:32:22;;;;;;;33.88;20.15;;;;;;;5.60;100.00;100775.81;4960714;28;20042;-87
2021/05/01 05:34:49;;;;;;;31.23;19.47;;;;;;;5.63;100.00;100781.09;4958455;28;20046;-87
2021/05/01 05:37:16;;;;;;;30.37;19.60;;;;;;;5.59;100.00;100779.31;4972454;28;20043;-88
2021/05/01 05:39:44;;;;;;;28.07;19.17;;;;;;;5.68;100.00;100777.59;4953708;28;20057;-86
2021/05/01 05:42:11;;;;;;;35.97;20.40;;;;;;;5.85;100.00;100771.47;4955984;28;20046;-88
2021/05/01 05:44:44;;;;;;;31.50;19.00;;;;;;;5.79;100.00;100775.84;4958683;28;20049;-88
2021/05/01 05:47:12;;;;;;;34.50;21.70;;;;;;;5.78;100.00;100779.34;4964638;28;20046;-85
2021/05/01 05:49:39;;;;;;;31.97;20.53;;;;;;;5.78;100.00;100779.34;4957692;28;20511;-84
2021/05/01 05:52:06;;;;;;;35.87;20.03;;;;;;;5.75;100.00;100774.97;4956305;28;20050;-86
2021/05/01 05:54:32;;;;;;;32.60;18.83;;;;;;;5.74;100.00;100769.75;4966962;28;20047;-85
2021/05/01 05:56:58;;;;;;;29.43;18.77;;;;;;;5.82;100.00;100774.13;4953940;28;20046;-84
2021/05/01 05:59:25;;;;;;;35.23;21.00;;;;;;;5.98;100.00;100780.28;4957309;28;20075;-82
2021/05/01 06:01:52;;;;;;;30.50;18.63;;;;;;;5.94;100.00;100778.50;4946002;28;20470;-82
2021/05/01 06:04:29;;;;;;;30.07;18.87;;;;;;;5.96;100.00;100776.75;4957400;28;20045;-84
2021/05/01 06:07:18;;;;;;;28.37;19.17;;;;;;;5.94;100.00;100781.13;4951760;28;20070;-85
2021/05/01 06:09:44;;;;;;;31.70;20.07;;;;;;;5.92;100.00;100785.50;4966370;28;20038;-85
2021/05/01 06:12:11;;;;;;;31.93;19.27;;;;;;;5.98;100.00;100787.28;4957184;28;20557;-86
2021/05/01 06:14:42;;;;;;;33.03;22.67;;;;;;;5.87;100.00;100781.97;4972465;28;20045;-85
2021/05/01 06:17:12;;;;;;;29.83;19.30;;;;;;;5.89;100.00;100777.63;4944203;28;20034;-87
2021/05/01 06:19:40;;;;;;;30.60;20.07;;;;;;;5.70;100.00;100773.22;4979358;28;20502;-87
2021/05/01 06:22:07;;;;;;;27.67;18.60;;;;;;;5.75;100.00;100774.09;4949062;28;20051;-87
2021/05/01 06:24:33;;;;;;;33.40;20.43;;;;;;;5.85;100.00;100778.47;4946389;28;20495;-87
2021/05/01 06:27:01;;;;;;;28.10;17.30;;;;;;;5.84;100.00;100779.34;4952616;28;20042;-86
2021/05/01 06:29:30;;;;;;;33.23;21.20;;;;;;;5.95;100.00;100788.13;4951916;28;20540;-85
2021/05/01 06:31:56;;;;;;;32.43;20.87;;;;;;;5.79;100.00;100781.97;4970194;28;20053;-86
2021/05/01 06:34:23;;;;;;;32.97;19.70;;;;;;;5.96;100.00;100789.88;4953946;28;20048;-85
2021/05/01 06:36:58;;;;;;;30.63;20.40;;;;;;;6.14;100.00;100778.53;4956342;28;20042;-85
2021/05/01 06:39:38;;;;;;;29.10;18.60;;;;;;;6.12;100.00;100786.38;4960668;28;20651;-85
2021/05/01 06:42:10;;;;;;;28.07;18.23;;;;;;;6.07;100.00;100784.66;4972562;28;20043;-85
2021/05/01 06:44:59;;;;;;;28.97;18.63;;;;;;;6.05;100.00;100787.25;4957109;28;20043;-85
2021/05/01 06:47:27;;;;;;;27.10;18.07;;;;;;;5.97;100.00;100791.66;4947781;28;20102;-88
2021/05/01 06:50:02;;;;;;;28.77;17.03;;;;;;;5.99;100.00;100787.25;4954194;28;20047;-88
2021/05/01 06:52:30;;;;;;;29.40;19.73;;;;;;;5.96;100.00;100789.88;4963497;28;20042;-85
2021/05/01 06:55:01;;;;;;;32.47;20.03;;;;;;;5.95;100.00;100793.38;4956718;28;20046;-84
2021/05/01 06:57:27;;;;;;;29.00;18.50;;;;;;;5.89;100.00;100795.97;4956942;28;20042;-84
2021/05/01 06:59:56;;;;;;;27.40;18.00;;;;;;;6.08;100.00;100792.50;4956552;28;20522;-84
2021/05/01 07:02:30;;;;;;;29.17;19.00;;;;;;;6.16;100.00;100784.63;4973051;28;20097;-84
2021/05/01 07:04:58;;;;;;;29.88;18.25;;;;;;;6.12;100.00;100789.00;4945031;28;20514;-87
2021/05/01 07:07:26;;;;;;;32.97;19.27;;;;;;;6.13;100.00;100793.38;4956506;28;20038;-86
2021/05/01 07:09:53;;;;;;;31.83;20.93;;;;;;;6.15;100.00;100785.53;4972386;28;20491;-84
2021/05/01 07:12:20;;;;;;;30.40;19.60;;;;;;;6.16;100.00;100798.63;4971183;28;20109;-86
2021/05/01 07:14:46;;;;;;;27.43;19.07;;;;;;;6.25;100.00;100792.50;4970171;28;20051;-87
2021/05/01 07:17:14;;;;;;;30.70;18.50;;;;;;;6.26;100.00;100789.00;4957050;28;20050;-84
2021/05/01 07:19:42;;;;;;;29.77;20.03;;;;;;;6.28;100.00;100791.63;4964920;28;20146;-87
2021/05/01 07:22:09;;;;;;;29.60;18.83;;;;;;;6.45;100.00;100792.47;4954568;28;20054;-86
2021/05/01 07:24:36;;;;;;;28.60;17.73;;;;;;;6.40;100.00;100794.25;4955211;28;20042;-86
2021/05/01 07:27:04;;;;;;;31.90;19.27;;;;;;;6.30;100.00;100793.34;4955802;28;20043;-87
2021/05/01 07:29:37;;;;;;;28.47;19.60;;;;;;;6.45;100.00;100797.72;4968979;28;20050;-87
2021/05/01 07:32:06;;;;;;;28.53;18.83;;;;;;;6.56;100.00;100801.22;4952317;28;20137;-86
2021/05/01 07:34:33;;;;;;;29.60;20.03;;;;;;;6.62;100.00;100798.56;4948356;28;20038;-86
2021/05/01 07:37:03;;;;;;;27.17;17.13;;;;;;;6.47;100.00;100798.59;4956487;28;20042;-84
2021/05/01 07:39:31;;;;;;;31.97;19.43;;;;;;;6.68;100.00;100795.94;4954899;28;20066;-86
2021/05/01 07:42:02;;;;;;;31.07;18.17;;;;;;;6.57;100.00;100795.09;4950667;28;20046;-85
2021/05/01 07:44:31;;;;;;;30.30;19.40;;;;;;;6.64;100.00;100802.09;4965831;28;20042;-85
2021/05/01 07:47:00;;;;;;;29.33;18.83;;;;;;;6.53;100.00;100800.34;4952163;28;20535;-85
2021/05/01 07:49:27;;;;;;;28.50;19.50;;;;;;;6.53;100.00;100801.22;4975044;28;20495;-85
2021/05/01 07:52:02;;;;;;;31.90;19.33;;;;;;;6.62;100.00;100798.56;4955012;28;20046;-86
2021/05/01 07:54:28;;;;;;;;;;;;;;;6.51;100.00;100804.72;4968124;28;20053;-85
2021/05/01 07:56:54;;;;;;;33.37;18.50;;;;;;;6.45;100.00;100805.59;4973046;28;19926;-84
2021/05/01 07:59:20;;;;;;;30.50;19.63;;;;;;;6.77;100.00;100800.28;4959386;28;20046;-84
2021/05/01 08:01:46;;;;;;;31.37;20.10;;;;;;;6.75;100.00;100799.41;4958935;28;20142;-84
2021/05/01 08:04:13;;;;;;;29.83;19.27;;;;;;;6.66;100.00;100800.31;4973155;28;20165;-84
2021/05/01 08:06:39;;;;;;;30.17;19.20;;;;;;;6.65;100.00;100800.31;4975748;28;20427;-87
2021/05/01 08:09:06;;;;;;;31.57;20.03;;;;;;;6.76;100.00;100799.41;4952963;28;20043;-84
2021/05/01 08:11:32;;;;;;;28.77;18.23;;;;;;;6.66;100.00;100802.06;4944388;28;20053;-84
2021/05/01 08:14:01;;;;;;;29.27;18.47;;;;;;;6.64;100.00;100795.94;4953486;28;20043;-85
2021/05/01 08:16:30;;;;;;;31.63;18.83;;;;;;;6.83;100.00;100794.16;4952949;28;20046;-83
2021/05/01 08:18:58;;;;;;;28.90;17.23;;;;;;;6.84;100.00;100804.63;4957437;28;20131;-84
2021/05/01 08:21:24;;;;;;;29.60;18.63;;;;;;;6.68;100.00;100813.44;4958076;28;20096;-85
2021/05/01 08:23:57;;;;;;;28.67;18.70;;;;;;;6.75;100.00;100797.66;4963251;28;20475;-84
2021/05/01 08:26:23;;;;;;;29.80;19.07;;;;;;;6.78;100.00;100807.28;4956929;28;20547;-84
2021/05/01 08:28:49;;;;;;;27.70;18.50;;;;;;;6.71;100.00;100810.78;4957576;28;20258;-84
2021/05/01 08:31:15;;;;;;;24.63;17.23;;;;;;;6.66;100.00;100799.44;4954375;28;20100;-84
2021/05/01 08:33:42;;;;;;;30.63;18.23;;;;;;;6.68;100.00;100795.94;4967414;28;21306;-83
2021/05/01 08:36:09;;;;;;;23.97;15.80;;;;;;;6.83;100.00;100799.41;4957430;28;20046;-84
2021/05/01 08:38:36;;;;;;;24.77;16.50;;;;;;;6.96;100.00;100794.09;4972419;28;20713;-84
2021/05/01 08:41:04;;;;;;;28.50;17.50;;;;;;;7.05;100.00;100808.94;4970441;28;20057;-85
2021/05/01 08:43:31;;;;;;;24.90;17.20;;;;;;;7.00;100.00;100798.47;4968295;28;20058;-83
2021/05/01 08:45:58;;;;;;;25.27;17.90;;;;;;;7.10;100.00;100793.16;4983127;28;20049;-84
2021/05/01 08:48:26;;;;;;;25.80;16.83;;;;;;;7.20;100.00;100794.88;4972954;28;20043;-84
2021/05/01 08:51:00;;;;;;;24.50;16.77;;;;;;;7.15;100.00;100797.53;4950865;28;20050;-83
2021/05/01 08:53:27;;;;;;;26.73;16.35;;;;;;;7.07;100.00;100788.81;4959132;28;20053;-83
2021/05/01 08:55:53;;;;;;;23.47;16.77;;;;;;;7.05;100.00;100799.31;4971452;28;20046;-84
2021/05/01 08:58:20;;;;;;;23.47;17.47;;;;;;;7.23;100.00;100792.22;4973887;28;20835;-83
2021/05/01 09:00:48;;;;;;;24.10;16.53;;;;;;;7.21;100.00;100794.00;4955741;28;20047;-84
2021/05/01 09:03:19;;;;;;;22.17;15.23;;;;;;;7.21;100.00;100791.34;4956186;28;20311;-84
2021/05/01 09:05:45;;;;;;;29.80;18.37;;;;;;;7.48;100.00;100788.63;4973010;28;20097;-84
2021/05/01 09:08:16;;;;;;;25.00;15.43;;;;;;;7.39;100.00;100793.03;4958249;28;20749;-83
2021/05/01 09:10:46;;;;;;;22.53;15.83;;;;;;;7.63;100.00;100787.63;4957987;28;20104;-85
2021/05/01 09:13:13;;;;;;;24.83;16.75;;;;;;;7.69;100.00;100782.31;4959065;28;20573;-83
2021/05/01 09:15:42;;;;;;;19.63;14.30;;;;;;;7.57;100.00;100783.28;4956238;28;20050;-83
2021/05/01 09:18:08;;;;;;;20.17;13.67;;;;;;;7.52;100.00;100778.94;4956955;28;20781;-84
2021/05/01 09:20:35;;;;;;;21.30;15.27;;;;;;;7.45;100.00;100783.34;4970781;28;20645;-83
2021/05/01 09:23:05;;;;;;;21.83;15.17;;;;;;;7.72;100.00;100778.78;4959278;28;20126;-83
2021/05/01 09:25:54;;;;;;;21.23;15.33;;;;;;;7.63;100.00;100771.84;4976313;28;20085;-85
2021/05/01 09:28:21;;;;;;;22.55;14.68;;;;;;;7.74;100.00;100775.28;4958042;28;20871;-85
2021/05/01 09:31:10;;;;;;;26.57;20.37;;;;;;;7.63;100.00;100782.34;4974121;28;20050;-85
2021/05/01 09:33:47;;;;;;;50.17;37.33;;;;;;;7.61;100.00;100787.63;4952633;28;20057;-84
2021/05/01 09:36:18;;;;;;;25.88;18.48;;;;;;;7.67;100.00;100776.22;4948094;28;20073;-84
2021/05/01 09:39:07;;;;;;;20.50;14.47;;;;;;;7.73;100.00;100784.03;4951682;28;20558;-84
2021/05/01 09:41:51;;;;;;;21.38;15.10;;;;;;;7.93;100.00;100786.53;4958660;28;20069;-84
2021/05/01 09:44:18;;;;;;;22.03;15.03;;;;;;;7.80;100.00;100791.00;4963833;28;20050;-84
2021/05/01 09:46:47;;;;;;;18.42;13.82;;;;;;;7.77;100.00;100791.03;4957489;28;20038;-85
2021/05/01 09:49:23;;;;;;;19.33;14.80;;;;;;;7.55;100.00;100795.56;4954620;28;20118;-86
2021/05/01 10:06:01;;;;;;;24.08;15.90;;;;;;;7.71;100.00;100777.06;5115312;27;20636;-84
2021/05/01 10:08:30;;;;;;;19.55;13.55;;;;;;;7.68;100.00;100777.97;5081995;28;20047;-85
2021/05/01 10:10:58;;;;;;;21.40;15.03;;;;;;;7.62;100.00;100772.72;5041094;28;20413;-84
2021/05/01 10:13:54;;;;;;;23.97;15.97;;;;;;;7.53;100.00;100767.53;5071639;28;20098;-84
2021/05/01 10:16:21;;;;;;;21.77;14.47;;;;;;;7.83;100.00;100763.84;5074712;28;20756;-85
2021/05/01 10:19:11;;;;;;;19.60;14.00;;;;;;;8.03;100.00;100756.63;5057877;28;20047;-85
2021/05/01 10:21:39;;;;;;;19.33;13.98;;;;;;;8.26;100.00;100761.72;5093929;28;20040;-84
2021/05/01 10:24:07;;;;;;;31.45;22.83;;;;;;;8.15;100.00;100764.41;5076329;28;20496;-84
2021/05/01 10:26:59;;;;;;;20.35;14.18;;;;;;;8.54;100.00;100748.28;5076746;28;20058;-84
2021/05/01 10:29:36;;;;;;;20.33;15.48;;;;;;;8.65;100.00;100749.03;5049424;28;20048;-85
2021/05/01 10:32:14;;;;;;;23.83;17.08;;;;;;;8.88;100.00;100751.41;5068745;28;20061;-84
2021/05/01 10:34:43;;;;;;;18.73;12.98;;;;;;;8.89;100.00;100763.69;5045412;28;20961;-84
2021/05/01 10:37:12;;;;;;;16.77;12.20;;;;;;;8.98;100.00;100758.31;5069664;28;20044;-85
2021/05/01 10:39:43;;;;;;;18.23;12.77;;;;;;;9.13;100.00;100765.16;5068116;28;20048;-84
2021/05/01 10:42:15;;;;;;;17.00;11.82;;;;;;;9.23;98.62;100767.63;5057513;28;20044;-88
2021/05/01 10:44:54;;;;;;;17.13;12.10;;;;;;;9.31;95.16;100773.69;5074326;28;20044;-87
2021/05/01 10:47:20;;;;;;;15.57;12.07;;;;;;;9.22;99.13;100762.41;5060686;28;20064;-86
2021/05/01 10:50:20;;;;;;;16.77;11.52;;;;;;;9.38;98.01;100766.56;5058851;28;20044;-86
2021/05/01 10:52:48;;;;;;;18.17;12.32;;;;;;;9.37;92.70;100769.22;5036299;28;20067;-85
2021/05/01 10:55:14;;;;;;;14.45;10.55;;;;;;;9.38;90.98;100768.34;5050845;28;20433;-83
2021/05/01 10:57:40;;;;;;;18.70;12.90;;;;;;;9.34;94.17;100770.16;5042940;28;20048;-84
2021/05/01 11:00:11;;;;;;;16.92;12.68;;;;;;;9.27;93.20;100774.63;5079245;28;20077;-85
2021/05/01 11:02:38;;;;;;;15.25;11.82;;;;;;;9.11;94.63;100770.44;5093857;28;20040;-84
2021/05/01 11:05:07;;;;;;;15.68;11.27;;;;;;;9.36;91.80;100772.75;5056604;28;20046;-83
2021/05/01 11:08:00;;;;;;;12.88;10.40;;;;;;;9.28;91.76;100786.91;5075095;28;20164;-84
2021/05/01 11:10:26;;;;;;;17.42;14.07;;;;;;;9.37;91.01;100787.69;5066185;28;20519;-85
2021/05/01 11:12:55;;;;;;;26.70;23.25;;;;;;;9.21;94.53;100789.66;5054414;28;20057;-84
2021/05/01 11:15:23;;;;;;;20.25;15.05;;;;;;;9.08;91.16;100780.13;5063430;28;20068;-85
2021/05/01 11:18:06;;;;;;;19.55;14.98;;;;;;;9.13;93.28;100771.28;5066077;28;20044;-85
2021/05/01 11:20:33;;;;;;;17.77;12.90;;;;;;;8.83;96.45;100774.28;5031415;28;20474;-85
2021/05/01 11:22:59;;;;;;;17.85;12.15;;;;;;;9.05;94.17;100775.78;5032896;28;20049;-84
2021/05/01 11:25:28;;;;;;;14.88;10.82;;;;;;;9.07;92.99;100771.38;5036845;28;20063;-83
2021/05/01 11:27:55;;;;;;;18.45;12.00;;;;;;;9.27;96.00;100768.50;5066142;28;20725;-83
2021/05/01 11:30:29;;;;;;;17.83;12.35;;;;;;;9.44;93.40;100782.31;5051612;28;20040;-84
2021/05/01 11:33:02;;;;;;;15.00;11.18;;;;;;;9.56;96.08;100779.50;5048914;28;20055;-83
2021/05/01 11:35:29;;;;;;;14.95;10.65;;;;;;;9.79;90.04;100778.28;5037030;28;20040;-83